Marthasville, Missouri
Current Conditions -  °F | °C
As of 12:55 PM on Sunday 23 Nov 2014 (Local Time) from KFYG Reporting Station
Light Rain Light Rain  
Wind Chill: 55°   Ceiling: 1600
Heat Index: 55°   Visibility: 3mi
Dew Point: 54°   Wind: 9mph
Humidity: 94%   Direction: 140°SE
Pressure: 29.43"   Gusts: NA
Location:  38.63°N, 91.06°W
Report Text: KFYG 231855Z AUTO 14008KT 3SM -RA SCT009 BKN016 13/12 A2943 RMK AO2 P0001
Loading
Personal Weather Stations






























Interactive Weather Map New forecast layout! Learn more

10-Day Weather Forecast

Advertisements
Track Severe Weather on mobile